createdAt,value
2023-02-19T00:01:09.634Z,102044.38
2023-02-19T00:03:13.033Z,102038.25
2023-02-19T00:05:16.472Z,102057.53
2023-02-19T00:07:19.813Z,102046.13
2023-02-19T00:09:24.538Z,102053.00
2023-02-19T00:11:30.706Z,102049.41
2023-02-19T00:13:37.658Z,102054.72
2023-02-19T00:15:40.972Z,102059.16
2023-02-19T00:17:44.456Z,102059.28
2023-02-19T00:19:47.732Z,102053.22
2023-02-19T00:21:52.956Z,102059.50
2023-02-19T00:23:59.412Z,102061.34
2023-02-19T00:26:17.560Z,102061.41
2023-02-19T00:28:24.258Z,102063.19
2023-02-19T00:30:27.681Z,102061.41
2023-02-19T00:32:31.230Z,102064.91
2023-02-19T00:34:34.622Z,102055.31
2023-02-19T00:36:39.724Z,102066.75
2023-02-19T00:38:44.711Z,102067.69
2023-02-19T00:40:47.997Z,102060.72
2023-02-19T00:42:52.803Z,102066.91
2023-02-19T00:44:56.224Z,102063.47
2023-02-19T00:46:59.676Z,102073.13
2023-02-19T00:49:03.519Z,102073.25
2023-02-19T00:51:07.178Z,102077.63
2023-02-19T00:53:10.449Z,102088.25
2023-02-19T00:55:13.843Z,102092.63
2023-02-19T00:57:17.286Z,102093.53
2023-02-19T00:59:22.083Z,102104.16
2023-02-19T01:01:25.551Z,102089.22
2023-02-19T01:03:29.055Z,102099.78
2023-02-19T01:05:32.397Z,102096.31
2023-02-19T01:07:37.422Z,102098.13
2023-02-19T01:09:40.801Z,102090.19
2023-02-19T01:11:44.261Z,102088.41
2023-02-19T01:13:47.566Z,102085.75
2023-02-19T01:15:52.506Z,102093.69
2023-02-19T01:17:55.891Z,102084.91
2023-02-19T01:19:59.292Z,102084.06
2023-02-19T01:22:03.426Z,102084.97
2023-02-19T01:24:07.367Z,102080.59
2023-02-19T01:26:15.064Z,102093.75
2023-02-19T01:28:18.340Z,102079.69
2023-02-19T01:30:21.776Z,102078.84
2023-02-19T01:32:26.591Z,102093.81
2023-02-19T01:34:33.405Z,102082.44
2023-02-19T01:36:37.480Z,102090.38
2023-02-19T01:38:40.710Z,102093.88
2023-02-19T01:40:43.945Z,102086.00
2023-02-19T01:42:47.251Z,102083.34
2023-02-19T01:45:18.764Z,102092.13
2023-02-19T01:47:22.203Z,102100.13
2023-02-19T01:49:30.263Z,102101.09
2023-02-19T01:51:34.930Z,102100.25
2023-02-19T01:53:40.819Z,102105.63
2023-02-19T01:55:47.296Z,102098.59
2023-02-19T01:57:54.590Z,102097.69
2023-02-19T02:00:03.321Z,102097.66
2023-02-19T02:02:15.591Z,102092.38
2023-02-19T02:04:20.087Z,102088.88
2023-02-19T02:06:29.399Z,102098.66
2023-02-19T02:08:51.214Z,102098.72
2023-02-19T02:10:58.640Z,102096.97
2023-02-19T02:13:02.040Z,102104.84
2023-02-19T02:15:05.873Z,102099.63
2023-02-19T02:17:21.565Z,102094.28
2023-02-19T02:19:54.796Z,102095.13
2023-02-19T02:22:08.315Z,102092.50
2023-02-19T02:24:42.767Z,102093.44
2023-02-19T02:26:57.094Z,102103.19
2023-02-19T02:29:38.322Z,102106.84
2023-02-19T02:31:51.147Z,102129.84
2023-02-19T02:34:00.865Z,102131.59
2023-02-19T02:36:09.037Z,102136.94
2023-02-19T02:38:16.838Z,102135.13
2023-02-19T02:40:21.147Z,102119.28
2023-02-19T02:42:30.170Z,102132.50
2023-02-19T02:44:41.072Z,102129.06
2023-02-19T02:46:47.732Z,102127.31
2023-02-19T02:48:55.558Z,102122.22
2023-02-19T02:51:04.440Z,102123.06
2023-02-19T02:53:36.406Z,102124.03
2023-02-19T02:55:44.181Z,102124.03
2023-02-19T02:57:47.896Z,102131.06
2023-02-19T02:59:51.733Z,102135.47
2023-02-19T03:02:12.170Z,102143.44
2023-02-19T03:04:16.277Z,102141.78
2023-02-19T03:06:22.390Z,102148.84
2023-02-19T03:08:31.388Z,102149.72
2023-02-19T03:10:41.017Z,102157.66
2023-02-19T03:13:04.552Z,102158.59
2023-02-19T03:15:29.198Z,102155.97
2023-02-19T03:17:57.666Z,102161.28
2023-02-19T03:20:05.065Z,102159.63
2023-02-19T03:22:15.909Z,102168.50
2023-02-19T03:24:39.633Z,102169.41
2023-02-19T03:26:45.343Z,102163.28
2023-02-19T03:29:10.206Z,102162.34
2023-02-19T03:31:22.028Z,102156.25
2023-02-19T03:33:30.440Z,102161.53
2023-02-19T03:35:36.923Z,102166.81
2023-02-19T03:37:45.473Z,102165.97
2023-02-19T03:39:48.848Z,102161.66
2023-02-19T03:42:01.283Z,102160.72
2023-02-19T03:44:09.244Z,102162.44
2023-02-19T03:46:17.140Z,102158.84
2023-02-19T03:48:34.478Z,102158.78
2023-02-19T03:50:42.697Z,102164.97
2023-02-19T03:52:55.609Z,102163.16
2023-02-19T03:55:08.409Z,102163.97
2023-02-19T03:57:20.464Z,102169.22
2023-02-19T03:59:31.568Z,102164.78
2023-02-19T04:01:43.546Z,102170.91
2023-02-19T04:03:55.936Z,102171.81
2023-02-19T04:06:03.747Z,102175.25
2023-02-19T04:08:14.500Z,102181.41
2023-02-19T04:10:24.071Z,102190.19
2023-02-19T04:12:31.169Z,102187.53
2023-02-19T04:14:40.038Z,102195.34
2023-02-19T04:16:49.014Z,102191.81
2023-02-19T04:18:58.216Z,102189.97
2023-02-19T04:21:02.219Z,102176.75
2023-02-19T04:23:05.758Z,102182.03
2023-02-19T04:25:09.679Z,102190.91
2023-02-19T04:27:13.187Z,102190.97
2023-02-19T04:29:16.606Z,102190.06
2023-02-19T04:31:19.952Z,102200.75
2023-02-19T04:33:23.342Z,102199.06
2023-02-19T04:35:27.983Z,102205.22
2023-02-19T04:37:31.191Z,102192.00
2023-02-19T04:39:34.990Z,102191.09
2023-02-19T04:41:38.366Z,102188.41
2023-02-19T04:43:41.693Z,102203.34
2023-02-19T04:45:44.968Z,102213.00
2023-02-19T04:47:48.230Z,102219.13
2023-02-19T04:49:51.522Z,102220.09
2023-02-19T04:51:56.229Z,102225.38
2023-02-19T04:53:59.467Z,102225.31
2023-02-19T04:56:07.870Z,102218.28
2023-02-19T04:58:11.110Z,102218.28
2023-02-19T05:00:15.601Z,102219.13
2023-02-19T05:02:18.810Z,102220.94
2023-02-19T05:04:22.338Z,102222.69
2023-02-19T05:06:25.651Z,102223.56
2023-02-19T05:08:30.280Z,102213.00
2023-02-19T05:10:33.811Z,102216.53
2023-02-19T05:12:37.017Z,102217.41
2023-02-19T05:14:40.230Z,102207.78
2023-02-19T05:16:43.680Z,102200.69
2023-02-19T05:18:48.031Z,102195.41
2023-02-19T05:20:52.320Z,102194.56
2023-02-19T05:22:55.521Z,102176.00
2023-02-19T05:25:00.126Z,102183.06
2023-02-19T05:27:03.490Z,102177.75
2023-02-19T05:29:06.816Z,102181.31
2023-02-19T05:31:12.374Z,102200.69
2023-02-19T05:33:16.911Z,102188.41
2023-02-19T05:35:20.112Z,102177.81
2023-02-19T05:37:23.359Z,102182.22
2023-02-19T05:39:26.579Z,102178.72
2023-02-19T05:41:31.880Z,102157.59
2023-02-19T05:43:35.221Z,102156.69
2023-02-19T05:45:38.957Z,102145.28
2023-02-19T05:47:42.163Z,102127.69
2023-02-19T05:49:45.448Z,102133.88
2023-02-19T05:51:51.928Z,102141.72
2023-02-19T05:53:56.526Z,102146.97
2023-02-19T05:56:00.303Z,102142.59
2023-02-19T05:58:05.177Z,102149.66
2023-02-19T06:00:09.669Z,102147.97
2023-02-19T06:02:15.374Z,102145.38
2023-02-19T06:04:20.146Z,102148.94
2023-02-19T06:06:24.259Z,102148.09
2023-02-19T06:08:27.512Z,102137.56
2023-02-19T06:10:30.881Z,102124.34
2023-02-19T06:12:34.338Z,102106.78
2023-02-19T06:14:38.980Z,102113.88
2023-02-19T06:16:43.074Z,102124.47
2023-02-19T06:18:46.534Z,102120.06
2023-02-19T06:20:49.822Z,102119.28
2023-02-19T06:22:53.113Z,102107.88
2023-02-19T06:24:56.388Z,102113.22
2023-02-19T06:26:59.645Z,102128.22
2023-02-19T06:29:02.943Z,102118.63
2023-02-19T06:31:08.665Z,102105.53
2023-02-19T06:33:12.050Z,102100.31
2023-02-19T06:35:15.387Z,102088.00
2023-02-19T06:37:18.604Z,102092.44
2023-02-19T06:39:21.776Z,102102.13
2023-02-19T06:41:25.020Z,102096.06
2023-02-19T06:43:28.244Z,102091.69
2023-02-19T06:45:31.438Z,102094.31
2023-02-19T06:47:36.110Z,102105.78
2023-02-19T06:49:40.787Z,102097.91
2023-02-19T06:51:44.242Z,102100.66
2023-02-19T06:53:47.780Z,102091.88
2023-02-19T06:55:57.324Z,102102.44
2023-02-19T06:58:00.699Z,102111.31
2023-02-19T07:00:04.784Z,102118.38
2023-02-19T07:02:08.474Z,102099.09
2023-02-19T07:04:13.623Z,102104.38
2023-02-19T07:06:16.803Z,102097.38
2023-02-19T07:08:20.044Z,102096.50
2023-02-19T07:10:23.325Z,102101.81
2023-02-19T07:12:26.576Z,102099.19
2023-02-19T07:14:30.813Z,102106.19
2023-02-19T07:16:34.091Z,102118.53
2023-02-19T07:18:37.379Z,102134.38
2023-02-19T07:20:42.038Z,102138.72
2023-02-19T07:22:45.303Z,102132.59
2023-02-19T07:24:48.484Z,102131.69
2023-02-19T07:26:51.690Z,102128.13
2023-02-19T07:28:54.959Z,102130.78
2023-02-19T07:31:03.449Z,102131.63
2023-02-19T07:33:09.342Z,102143.03
2023-02-19T07:35:13.540Z,102150.97
2023-02-19T07:37:18.242Z,102157.19
2023-02-19T07:39:21.432Z,102160.72
2023-02-19T07:41:25.126Z,102166.91
2023-02-19T07:43:30.941Z,102169.56
2023-02-19T07:45:34.247Z,102174.81
2023-02-19T07:47:37.682Z,102169.56
2023-02-19T07:49:40.947Z,102165.13
2023-02-19T07:51:44.712Z,102171.34
2023-02-19T07:53:51.442Z,102179.31
2023-02-19T07:55:54.821Z,102165.34
2023-02-19T07:57:59.697Z,102168.81
2023-02-19T08:00:03.516Z,102160.06
2023-02-19T08:02:35.876Z,102175.88
2023-02-19T08:04:39.284Z,102188.25
2023-02-19T08:06:43.273Z,102182.13
2023-02-19T08:08:46.459Z,102176.84
2023-02-19T08:11:08.802Z,102175.94
2023-02-19T08:13:23.772Z,102175.94
2023-02-19T08:15:27.068Z,102175.94
2023-02-19T08:17:31.354Z,102168.94
2023-02-19T08:19:34.635Z,102175.03
2023-02-19T08:21:38.055Z,102167.13
2023-02-19T08:23:41.455Z,102175.88
2023-02-19T08:25:45.467Z,102179.31
2023-02-19T08:27:50.153Z,102178.44
2023-02-19T08:29:53.538Z,102173.97
2023-02-19T08:31:56.836Z,102171.28
2023-02-19T08:34:00.179Z,102169.44
2023-02-19T08:36:05.619Z,102177.31
2023-02-19T08:38:09.163Z,102179.94
2023-02-19T08:40:13.276Z,102172.00
2023-02-19T08:42:16.507Z,102177.28
2023-02-19T08:44:21.248Z,102178.09
2023-02-19T08:46:24.673Z,102173.63
2023-02-19T08:48:28.096Z,102160.38
2023-02-19T08:50:31.829Z,102163.03
2023-02-19T08:52:35.698Z,102172.63
2023-02-19T08:54:39.056Z,102174.31
2023-02-19T08:56:42.546Z,102170.66
2023-02-19T08:58:47.172Z,102161.78
2023-02-19T09:00:51.842Z,102146.78
2023-02-19T09:02:55.216Z,102141.44
2023-02-19T09:04:58.474Z,102145.81
2023-02-19T09:07:01.897Z,102153.72
2023-02-19T09:09:05.743Z,102153.72
2023-02-19T09:11:09.329Z,102152.91
2023-02-19T09:13:13.098Z,102160.78
2023-02-19T09:15:16.717Z,102166.94
2023-02-19T09:17:21.468Z,102171.34
2023-02-19T09:19:25.068Z,102178.47
2023-02-19T09:21:28.334Z,102167.00
2023-02-19T09:23:31.641Z,102168.75
2023-02-19T09:25:35.047Z,102163.47
2023-02-19T09:27:38.484Z,102168.63
2023-02-19T09:29:41.902Z,102175.53
2023-02-19T09:31:45.327Z,102173.63
2023-02-19T09:33:50.677Z,102162.03
2023-02-19T09:35:54.106Z,102168.88
2023-02-19T09:38:00.880Z,102167.00
2023-02-19T09:40:04.357Z,102172.00
2023-02-19T09:42:15.567Z,102162.69
2023-02-19T09:44:25.905Z,102162.91
2023-02-19T09:46:33.223Z,102173.69
2023-02-19T09:48:36.801Z,102178.41
2023-02-19T09:50:46.109Z,102180.78
2023-02-19T09:52:53.431Z,102187.81
2023-02-19T09:55:00.605Z,102191.69
2023-02-19T09:57:05.313Z,102195.41
2023-02-19T09:59:20.741Z,102198.28
2023-02-19T10:01:26.891Z,102200.16
2023-02-19T10:03:34.403Z,102212.59
2023-02-19T10:05:40.143Z,102206.47
2023-02-19T10:07:47.397Z,102199.47
2023-02-19T10:09:57.096Z,102197.69
2023-02-19T10:12:01.264Z,102202.91
2023-02-19T10:14:09.430Z,102190.53
2023-02-19T10:16:17.692Z,102201.88
2023-02-19T10:18:23.750Z,102191.31
2023-02-19T10:20:29.144Z,102196.53
2023-02-19T10:22:34.325Z,102197.44
2023-02-19T10:24:41.389Z,102199.13
2023-02-19T10:26:44.735Z,102196.53
2023-02-19T10:28:47.953Z,102194.84
2023-02-19T10:30:55.113Z,102198.28
2023-02-19T10:33:04.790Z,102191.19
2023-02-19T10:35:13.369Z,102193.75
2023-02-19T10:37:19.434Z,102197.03
2023-02-19T10:39:46.419Z,102203.06
2023-02-19T10:41:51.001Z,102200.41
2023-02-19T10:43:57.617Z,102206.47
2023-02-19T10:46:04.826Z,102201.28
2023-02-19T10:48:24.936Z,102201.34
2023-02-19T10:50:33.090Z,102210.06
2023-02-19T10:52:37.100Z,102213.53
2023-02-19T10:54:40.981Z,102208.13
2023-02-19T10:56:46.101Z,102208.84
2023-02-19T10:58:49.011Z,102201.88
2023-02-19T11:01:12.239Z,102200.84
2023-02-19T11:03:24.127Z,102197.22
2023-02-19T11:05:27.458Z,102182.97
2023-02-19T11:07:30.893Z,102194.50
2023-02-19T11:09:39.643Z,102198.81
2023-02-19T11:11:43.031Z,102205.78
2023-02-19T11:13:48.552Z,102213.66
2023-02-19T11:15:54.334Z,102209.16
2023-02-19T11:18:01.474Z,102214.38
2023-02-19T11:20:15.444Z,102206.38
2023-02-19T11:22:30.830Z,102204.44
2023-02-19T11:24:37.563Z,102204.22
2023-02-19T11:26:40.879Z,102197.88
2023-02-19T11:28:45.541Z,102202.13
2023-02-19T11:30:50.446Z,102194.19
2023-02-19T11:32:53.933Z,102191.41
2023-02-19T11:35:17.901Z,102195.88
2023-02-19T11:37:22.835Z,102185.91
2023-02-19T11:39:31.958Z,102185.50
2023-02-19T11:41:56.550Z,102197.34
2023-02-19T11:44:14.323Z,102193.81
2023-02-19T11:46:29.074Z,102185.81
2023-02-19T11:49:03.575Z,102196.41
2023-02-19T11:51:20.145Z,102190.44
2023-02-19T11:53:28.216Z,102172.25
2023-02-19T11:55:45.678Z,102180.41
2023-02-19T11:57:50.007Z,102173.66
2023-02-19T12:00:04.646Z,102178.97
2023-02-19T12:02:36.973Z,102164.41
2023-02-19T12:05:08.865Z,102167.69
2023-02-19T12:07:28.793Z,102157.50
2023-02-19T12:09:48.538Z,102155.31
2023-02-19T12:12:02.955Z,102164.72
2023-02-19T12:14:35.311Z,102139.72
2023-02-19T12:16:45.380Z,102149.47
2023-02-19T12:19:18.945Z,102128.00
2023-02-19T12:21:37.578Z,102126.69
2023-02-19T12:23:58.275Z,102129.84
2023-02-19T12:26:09.453Z,102128.78
2023-02-19T12:28:37.717Z,102134.63
2023-02-19T12:31:04.841Z,102106.28
2023-02-19T12:33:44.032Z,102095.91
2023-02-19T12:36:06.231Z,102091.28
2023-02-19T12:38:21.916Z,102072.78
2023-02-19T12:40:39.507Z,102069.13
2023-02-19T12:42:56.834Z,102061.97
2023-02-19T12:45:06.607Z,102056.53
2023-02-19T12:47:18.453Z,102050.16
2023-02-19T12:49:28.866Z,102039.41
2023-02-19T12:51:41.187Z,102039.56
2023-02-19T12:53:51.479Z,102043.94
2023-02-19T12:55:58.124Z,102031.81
2023-02-19T12:58:05.654Z,102022.22
2023-02-19T13:00:26.562Z,102014.41
2023-02-19T13:02:36.573Z,102010.22
2023-02-19T13:04:48.446Z,102008.63
2023-02-19T13:06:57.988Z,102008.72
2023-02-19T13:09:09.418Z,102005.16
2023-02-19T13:11:18.555Z,101998.22
2023-02-19T13:13:27.097Z,102003.59
2023-02-19T13:15:36.233Z,101994.81
2023-02-19T13:17:45.560Z,101991.19
2023-02-19T13:19:51.841Z,101982.28
2023-02-19T13:22:23.986Z,101982.28
2023-02-19T13:24:30.408Z,101977.88
2023-02-19T13:26:49.347Z,101963.53
2023-02-19T13:29:09.477Z,101979.28
2023-02-19T13:31:33.252Z,101982.72
2023-02-19T13:33:48.428Z,101976.25
2023-02-19T13:36:08.309Z,101971.69
2023-02-19T13:38:15.198Z,101980.38
2023-02-19T13:40:27.205Z,101979.22
2023-02-19T13:42:34.890Z,101971.25
2023-02-19T13:44:42.199Z,101966.53
2023-02-19T13:46:47.706Z,101990.16
2023-02-19T13:49:38.670Z,101973.31
2023-02-19T13:51:51.561Z,101973.56
2023-02-19T13:54:00.789Z,101964.06
2023-02-19T13:56:04.447Z,101972.97
2023-02-19T13:59:01.599Z,101973.09
2023-02-19T14:01:06.864Z,101980.13
2023-02-19T14:03:30.671Z,101969.59
2023-02-19T14:06:09.920Z,101984.59
2023-02-19T14:08:14.954Z,101979.44
2023-02-19T14:10:58.093Z,101982.28
2023-02-19T14:13:01.619Z,101980.72
2023-02-19T14:15:49.942Z,101972.91
2023-02-19T14:17:55.390Z,101975.41
2023-02-19T14:20:01.375Z,101961.38
2023-02-19T14:22:43.862Z,101960.59
2023-02-19T14:24:49.310Z,101962.47
2023-02-19T14:26:53.344Z,101950.91
2023-02-19T14:28:57.476Z,101950.06
2023-02-19T14:31:04.267Z,101949.13
2023-02-19T14:33:12.029Z,101939.38
2023-02-19T14:35:20.655Z,101934.16
2023-02-19T14:37:24.483Z,101941.19
2023-02-19T14:39:31.363Z,101931.41
2023-02-19T14:41:41.854Z,101931.41
2023-02-19T14:43:48.346Z,101931.34
2023-02-19T14:45:56.504Z,101925.88
2023-02-19T14:48:03.621Z,101909.84
2023-02-19T14:50:10.778Z,101917.66
2023-02-19T14:52:19.729Z,101910.50
2023-02-19T14:54:37.214Z,101897.94
2023-02-19T14:56:45.949Z,101902.31
2023-02-19T14:59:08.495Z,101883.66
2023-02-19T15:01:27.532Z,101881.81
2023-02-19T15:03:34.752Z,101874.63
2023-02-19T15:05:38.874Z,101884.38
2023-02-19T15:07:43.857Z,101868.47
2023-02-19T15:09:50.532Z,101865.81
2023-02-19T15:11:57.266Z,101860.53
2023-02-19T15:14:04.019Z,101855.22
2023-02-19T15:16:08.818Z,101860.53
2023-02-19T15:18:18.271Z,101840.16
2023-02-19T15:20:26.969Z,101837.50
2023-02-19T15:22:32.833Z,101835.69
2023-02-19T15:24:36.520Z,101833.84
2023-02-19T15:26:41.902Z,101830.25
2023-02-19T15:28:46.921Z,101823.06
2023-02-19T15:30:50.636Z,101820.25
2023-02-19T15:32:56.185Z,101814.94
2023-02-19T15:35:01.187Z,101806.84
2023-02-19T15:37:06.571Z,101805.91
2023-02-19T15:39:21.073Z,101795.25
2023-02-19T15:41:28.745Z,101794.28
2023-02-19T15:43:34.829Z,101815.38
2023-02-19T15:45:45.946Z,101805.59
2023-02-19T15:47:50.773Z,101809.97
2023-02-19T15:49:59.866Z,101817.00
2023-02-19T15:52:09.457Z,101812.47
2023-02-19T15:54:27.110Z,101815.91
2023-02-19T15:56:33.797Z,101812.31
2023-02-19T15:58:42.891Z,101813.19
2023-02-19T16:00:51.782Z,101821.91
2023-02-19T16:02:55.459Z,101815.59
2023-02-19T16:05:02.372Z,101801.22
2023-02-19T16:07:05.885Z,101809.00
2023-02-19T16:09:22.417Z,101797.22
2023-02-19T16:11:31.431Z,101802.38
2023-02-19T16:13:36.276Z,101781.91
2023-02-19T16:15:40.846Z,101782.84
2023-02-19T16:17:46.339Z,101779.34
2023-02-19T16:19:54.736Z,101778.50
2023-02-19T16:21:59.869Z,101766.16
2023-02-19T16:24:15.730Z,101761.03
2023-02-19T16:26:20.191Z,101769.13
2023-02-19T16:28:26.123Z,101771.94
2023-02-19T16:30:34.205Z,101755.34
2023-02-19T16:33:31.228Z,101755.50
2023-02-19T16:35:52.723Z,101740.59
2023-02-19T16:38:01.059Z,101746.84
2023-02-19T16:40:52.624Z,101746.84
2023-02-19T16:43:25.878Z,101743.31
2023-02-19T16:45:29.422Z,101746.94
2023-02-19T16:47:35.063Z,101740.84
2023-02-19T16:49:38.977Z,101740.06
2023-02-19T16:51:45.799Z,101741.00
2023-02-19T16:53:49.260Z,101732.25
2023-02-19T16:55:53.184Z,101733.19
2023-02-19T16:57:57.283Z,101722.66
2023-02-19T17:00:00.923Z,101729.78
2023-02-19T17:02:06.355Z,101719.31
2023-02-19T17:04:12.958Z,101723.75
2023-02-19T17:06:17.457Z,101726.50
2023-02-19T17:08:33.977Z,101727.41
2023-02-19T17:10:38.030Z,101729.31
2023-02-19T17:12:41.547Z,101724.94
2023-02-19T17:14:45.231Z,101724.94
2023-02-19T17:16:48.891Z,101727.50
2023-02-19T17:18:52.678Z,101723.94
2023-02-19T17:21:01.932Z,101724.75
2023-02-19T17:23:05.818Z,101732.72
2023-02-19T17:25:10.905Z,101732.72
2023-02-19T17:27:14.840Z,101733.59
2023-02-19T17:29:20.026Z,101718.63
2023-02-19T17:31:23.821Z,101726.66
2023-02-19T17:33:27.500Z,101733.69
2023-02-19T17:35:31.119Z,101723.94
2023-02-19T17:37:34.700Z,101735.38
2023-02-19T17:39:37.998Z,101734.44
2023-02-19T17:41:43.099Z,101740.53
2023-02-19T17:43:47.668Z,101728.97
2023-02-19T17:45:51.280Z,101739.53
2023-02-19T17:47:54.858Z,101743.78
2023-02-19T17:49:58.307Z,101741.09
2023-02-19T17:52:01.932Z,101751.53
2023-02-19T17:54:08.244Z,101748.78
2023-02-19T17:56:16.834Z,101741.63
2023-02-19T17:58:21.860Z,101740.59
2023-02-19T18:00:26.399Z,101738.72
2023-02-19T18:02:30.048Z,101729.75
2023-02-19T18:04:35.558Z,101729.75
2023-02-19T18:06:39.909Z,101730.59
2023-02-19T18:08:48.826Z,101721.78
2023-02-19T18:10:52.744Z,101736.78
2023-02-19T18:12:56.223Z,101741.13
2023-02-19T18:15:01.184Z,101732.31
2023-02-19T18:17:04.572Z,101737.53
2023-02-19T18:19:09.094Z,101734.78
2023-02-19T18:21:14.447Z,101731.22
2023-02-19T18:23:20.737Z,101742.69
2023-02-19T18:25:24.965Z,101743.56
2023-02-19T18:27:28.615Z,101737.38
2023-02-19T18:29:35.040Z,101745.31
2023-02-19T18:31:40.647Z,101728.47
2023-02-19T18:33:44.336Z,101730.19
2023-02-19T18:35:50.483Z,101730.19
2023-02-19T18:37:56.023Z,101735.50
2023-02-19T18:39:59.611Z,101725.81
2023-02-19T18:42:03.334Z,101723.16
2023-02-19T18:44:07.165Z,101722.22
2023-02-19T18:46:11.220Z,101729.25
2023-02-19T18:48:16.167Z,101731.91
2023-02-19T18:50:21.142Z,101716.84
2023-02-19T18:52:26.367Z,101723.88
2023-02-19T18:54:30.292Z,101726.53
2023-02-19T18:56:33.828Z,101719.41
2023-02-19T18:58:37.322Z,101727.28
2023-02-19T19:00:40.862Z,101733.47
2023-02-19T19:02:49.691Z,101722.84
2023-02-19T19:04:57.262Z,101720.19
2023-02-19T19:07:00.877Z,101717.53
2023-02-19T19:09:04.682Z,101721.13
2023-02-19T19:11:08.206Z,101727.28
2023-02-19T19:13:11.786Z,101721.13
2023-02-19T19:15:18.168Z,101710.50
2023-02-19T19:17:22.180Z,101719.41
2023-02-19T19:19:26.018Z,101707.94
2023-02-19T19:21:31.286Z,101726.44
2023-02-19T19:23:35.111Z,101719.41
2023-02-19T19:25:39.222Z,101711.44
2023-02-19T19:27:42.993Z,101714.09
2023-02-19T19:29:47.888Z,101703.50
2023-02-19T19:31:52.045Z,101709.72
2023-02-19T19:33:55.668Z,101710.59
2023-02-19T19:35:59.316Z,101718.66
2023-02-19T19:38:04.444Z,101701.75
2023-02-19T19:40:09.808Z,101706.22
2023-02-19T19:42:13.621Z,101701.75
2023-02-19T19:44:17.286Z,101702.63
2023-02-19T19:46:21.193Z,101680.44
2023-02-19T19:48:27.741Z,101684.16
2023-02-19T19:50:31.563Z,101696.47
2023-02-19T19:52:35.265Z,101697.41
2023-02-19T19:54:42.314Z,101693.88
2023-02-19T19:56:50.551Z,101686.94
2023-02-19T19:58:54.599Z,101687.13
2023-02-19T20:00:59.359Z,101686.38
2023-02-19T20:03:03.437Z,101675.88
2023-02-19T20:05:07.919Z,101670.75
2023-02-19T20:07:11.855Z,101669.03
2023-02-19T20:09:15.873Z,101688.56
2023-02-19T20:11:21.255Z,101675.34
2023-02-19T20:13:26.840Z,101674.50
2023-02-19T20:15:30.656Z,101674.59
2023-02-19T20:17:34.672Z,101671.09
2023-02-19T20:19:38.547Z,101671.16
2023-02-19T20:21:46.137Z,101670.31
2023-02-19T20:23:49.655Z,101671.25
2023-02-19T20:25:53.427Z,101652.75
2023-02-19T20:27:58.751Z,101669.69
2023-02-19T20:30:02.480Z,101667.97
2023-02-19T20:32:06.684Z,101670.69
2023-02-19T20:34:10.545Z,101679.63
2023-02-19T20:36:14.556Z,101667.28
2023-02-19T20:38:18.554Z,101666.50
2023-02-19T20:40:24.442Z,101684.22
2023-02-19T20:42:28.082Z,101683.38
2023-02-19T20:44:33.808Z,101684.31
2023-02-19T20:46:42.722Z,101680.78
2023-02-19T20:48:46.471Z,101673.00
2023-02-19T20:50:50.210Z,101686.34
2023-02-19T20:52:55.948Z,101695.31
2023-02-19T20:54:59.623Z,101695.31
2023-02-19T20:57:05.482Z,101688.28
2023-02-19T20:59:09.722Z,101690.16
2023-02-19T21:01:15.060Z,101693.75
2023-02-19T21:03:18.877Z,101691.00
2023-02-19T21:05:23.296Z,101687.59
2023-02-19T21:07:27.615Z,101686.72
2023-02-19T21:09:32.539Z,101691.19
2023-02-19T21:11:36.270Z,101692.19
2023-02-19T21:13:41.456Z,101705.53
2023-02-19T21:15:45.743Z,101688.91
2023-02-19T21:17:51.879Z,101695.19
2023-02-19T21:19:56.276Z,101688.22
2023-02-19T21:22:00.228Z,101696.28
2023-02-19T21:24:04.490Z,101693.75
2023-02-19T21:26:08.412Z,101689.47
2023-02-19T21:28:12.788Z,101685.13
2023-02-19T21:30:16.736Z,101693.16
2023-02-19T21:32:20.725Z,101686.22
2023-02-19T21:34:27.778Z,101694.25
2023-02-19T21:36:31.597Z,101696.06
2023-02-19T21:38:35.596Z,101683.81
2023-02-19T21:40:39.629Z,101689.22
2023-02-19T21:42:43.412Z,101696.22
2023-02-19T21:44:48.040Z,101700.72
2023-02-19T21:46:52.685Z,101699.03
2023-02-19T21:48:57.771Z,101692.03
2023-02-19T21:51:05.051Z,101695.59
2023-02-19T21:53:08.600Z,101693.78
2023-02-19T21:55:12.199Z,101690.38
2023-02-19T21:57:16.122Z,101681.59
2023-02-19T21:59:20.819Z,101682.50
2023-02-19T22:01:24.850Z,101680.72
2023-02-19T22:03:28.712Z,101688.75
2023-02-19T22:05:32.478Z,101683.44
2023-02-19T22:07:37.688Z,101670.19
2023-02-19T22:09:41.609Z,101677.28
2023-02-19T22:11:45.231Z,101678.13
2023-02-19T22:13:49.113Z,101673.75
2023-02-19T22:15:52.765Z,101667.63
2023-02-19T22:17:56.474Z,101676.50
2023-02-19T22:20:00.362Z,101671.28
2023-02-19T22:22:05.024Z,101678.31
2023-02-19T22:24:16.528Z,101658.94
2023-02-19T22:26:21.732Z,101667.81
2023-02-19T22:28:25.282Z,101658.19
2023-02-19T22:30:29.389Z,101658.19
2023-02-19T22:32:33.114Z,101660.84
2023-02-19T22:34:40.750Z,101660.91
2023-02-19T22:36:45.194Z,101667.06
2023-02-19T22:38:49.394Z,101661.75
2023-02-19T22:40:54.787Z,101664.50
2023-02-19T22:42:58.392Z,101669.78
2023-02-19T22:45:02.422Z,101659.28
2023-02-19T22:47:06.394Z,101669.97
2023-02-19T22:49:10.029Z,101655.00
2023-02-19T22:51:14.991Z,101670.00
2023-02-19T22:53:19.116Z,101657.81
2023-02-19T22:55:23.524Z,101649.84
2023-02-19T22:57:28.944Z,101632.22
2023-02-19T22:59:32.841Z,101635.81
2023-02-19T23:01:36.950Z,101639.31
2023-02-19T23:03:47.827Z,101642.91
2023-02-19T23:05:51.634Z,101628.78
2023-02-19T23:07:55.483Z,101644.69
2023-02-19T23:09:59.499Z,101629.66
2023-02-19T23:12:04.689Z,101627.03
2023-02-19T23:14:10.261Z,101630.50
2023-02-19T23:16:14.570Z,101630.50
2023-02-19T23:18:18.590Z,101629.66
2023-02-19T23:20:22.511Z,101634.97
2023-02-19T23:22:26.602Z,101635.81
2023-02-19T23:24:30.489Z,101632.31
2023-02-19T23:26:34.219Z,101638.38
2023-02-19T23:28:37.852Z,101627.78
2023-02-19T23:30:43.135Z,101623.41
2023-02-19T23:32:46.899Z,101632.16
2023-02-19T23:34:50.696Z,101619.75
2023-02-19T23:36:55.626Z,101630.34
2023-02-19T23:38:59.061Z,101602.09
2023-02-19T23:41:02.897Z,101620.63
2023-02-19T23:43:06.595Z,101626.78
2023-02-19T23:45:10.846Z,101613.59
2023-02-19T23:47:16.139Z,101624.19
2023-02-19T23:49:20.170Z,101620.72
2023-02-19T23:51:24.868Z,101627.78
2023-02-19T23:53:28.378Z,101629.50
2023-02-19T23:55:31.867Z,101621.63
2023-02-19T23:57:35.455Z,101628.72
2023-02-19T23:59:38.969Z,101623.50
